Hauptseite
METAR-TAF:

METAR-TAF

Flughäfen :

RNAS Yeovilton

Yeovilton, England

Breite: 51-00N, Länge: 002-38W, Höhe: 23 m

Beobachtung

Neuester Wetterbericht von vor 26 Minuten, um 12:50 UTC
Wind 12 kt aus Nord
Temperatur 13°C
Luftfeuchtigkeit 58%
Luftdruck 1038 hPa
Sichtweite 10 km oder mehr
Leicht bewölkt in der Höhe von 3000 ft

METAR: EGDY 221250Z 36012KT 9999 FEW030 13/05 Q1038 BLU NOSIG

Zeit: 14:16 (13:16 UTC)

Prognose

Neuester Wetterbericht von vor 1 Stunde und 47 Minuten, um 11:29 UTC
Gültige Prognose vom 22 um 12 UTC bis 22 um 21 UTC
Wind 12 kt aus Nord
Sichtweite 10 km oder mehr
Leicht bewölkt in der Höhe von 3000 ft
Übergehend zu
vom 22 um 18 UTC bis 22 um 21 UTC
Wind 5 kt aus Nord/Nordwest

TAF: EGDY 221129Z 2212/2221 01012KT 9999 FEW030 BECMG 2218/2221 33005KT

Wetterbeobachtungen und Prognosen von mehr als 4000 Flughäfen (METAR und TAF Bericht).

Die verfügbaren Stationen werden durch gelbe und rote Markierungen auf der Karte dargestellt.

Führen Sie die Maus auf sie, um den Namen der Station zu sehen.

Darauf klicken, um die Beobachtung von Wetterbeobachtungen und Prognosen zu sehen.

Um die Karte zu ändern : klicken Sie auf den grünen Tasten mit einem schwarzen Kreuz Zum Vergrößern, auf den grünen Button mit einem Gedankenstrich zu verkleinern, oder auf die grünen Pfeile für benachbarte Karten.


METAR-TAF: